Time;durP1;ratioP1;P1;durP2;ratioP2;P2;SDS_P1;SDS_P2;PMS_P1;PMS_P2;Temp;Humidity;BMP_temperature;BMP_pressure;BME280_temperature;BME280_humidity;BME280_pressure;Samples;Min_cycle;Max_cycle;Signal;HPM_P1;HPM_P2
2022/08/03 00:00:13;;;;;;;11.13;5.38;;;;;;;;;;5035896;28;20122;-75
2022/08/03 00:02:39;;;;;;;9.35;4.95;;;;;;;;;;5035557;28;20041;-76
2022/08/03 00:05:07;;;;;;;9.38;5.43;;;;;;;;;;5048121;28;20037;-76
2022/08/03 00:07:33;;;;;;;10.93;5.10;;;;;;;;;;5036095;28;20509;-76
2022/08/03 00:09:59;;;;;;;6.50;4.80;;;;;;;;;;4998318;28;20060;-76
2022/08/03 00:12:25;;;;;;;11.13;5.35;;;;;;;;;;5020363;28;20042;-75
2022/08/03 00:14:51;;;;;;;10.40;4.97;;;;;;;;;;5017452;28;20087;-75
2022/08/03 00:17:17;;;;;;;9.77;4.65;;;;;;;;;;5035150;28;20459;-76
2022/08/03 00:19:43;;;;;;;8.95;4.55;;;;;;;;;;5035247;28;20447;-76
2022/08/03 00:22:09;;;;;;;11.90;4.93;;;;;;;;;;5034629;28;20497;-75
2022/08/03 00:24:35;;;;;;;9.93;5.78;;;;;;;;;;5035673;28;20064;-75
2022/08/03 00:27:01;;;;;;;10.50;5.20;;;;;;;;;;5035212;28;20045;-75
2022/08/03 00:29:27;;;;;;;10.55;4.63;;;;;;;;;;5017024;28;20489;-76
2022/08/03 00:31:53;;;;;;;9.95;4.80;;;;;;;;;;5034839;28;20042;-76
2022/08/03 00:34:19;;;;;;;12.02;5.32;;;;;;;;;;5034697;28;20045;-76
2022/08/03 00:36:45;;;;;;;8.45;4.93;;;;;;;;;;5003185;28;20053;-75
2022/08/03 00:39:11;;;;;;;9.70;5.20;;;;;;;;;;5011977;28;20481;-75
2022/08/03 00:41:37;;;;;;;13.60;5.38;;;;;;;;;;5030014;28;20064;-76
2022/08/03 00:44:03;;;;;;;9.27;5.38;;;;;;;;;;5034992;28;20057;-76
2022/08/03 00:46:29;;;;;;;10.18;5.03;;;;;;;;;;5034240;28;20045;-76
2022/08/03 00:48:55;;;;;;;8.77;5.20;;;;;;;;;;5034250;28;20053;-75
2022/08/03 00:51:22;;;;;;;14.85;5.25;;;;;;;;;;5034579;28;20041;-76
2022/08/03 00:53:48;;;;;;;11.20;5.55;;;;;;;;;;5034449;28;20125;-76
2022/08/03 00:56:15;;;;;;;10.18;5.10;;;;;;;;;;5034160;28;20037;-76
2022/08/03 00:58:43;;;;;;;9.13;5.60;;;;;;;;;;5034711;28;20068;-76
2022/08/03 01:01:09;;;;;;;8.20;4.82;;;;;;;;;;5031577;28;20042;-73
2022/08/03 01:03:35;;;;;;;9.93;5.32;;;;;;;;;;5034479;28;20049;-76
2022/08/03 01:06:09;;;;;;;14.38;5.47;;;;;;;;;;5036038;28;20041;-76
2022/08/03 01:08:41;;;;;;;13.95;5.35;;;;;;;;;;5028994;28;20045;-76
2022/08/03 01:11:31;;;;;;;10.20;4.90;;;;;;;;;;5030602;28;20540;-76
2022/08/03 01:14:09;;;;;;;12.05;5.30;;;;;;;;;;5006142;28;20507;-76
2022/08/03 01:16:38;;;;;;;10.05;5.38;;;;;;;;;;5021532;28;20046;-76
2022/08/03 01:19:13;;;;;;;11.52;5.55;;;;;;;;;;5034385;28;20049;-76
2022/08/03 01:21:47;;;;;;;10.30;5.80;;;;;;;;;;5033494;28;20042;-76
2022/08/03 01:24:31;;;;;;;10.57;5.60;;;;;;;;;;5014891;28;20053;-76
2022/08/03 01:27:04;;;;;;;11.68;5.55;;;;;;;;;;5034199;28;20049;-76
2022/08/03 01:29:30;;;;;;;11.10;5.53;;;;;;;;;;5032882;28;20081;-75
2022/08/03 01:32:01;;;;;;;16.15;5.78;;;;;;;;;;5031701;28;20068;-75
2022/08/03 01:34:31;;;;;;;11.60;5.70;;;;;;;;;;5027362;28;20065;-76
2022/08/03 01:36:57;;;;;;;14.55;6.40;;;;;;;;;;5027615;28;20041;-76
2022/08/03 01:39:23;;;;;;;9.68;5.63;;;;;;;;;;5030481;28;20045;-75
2022/08/03 01:41:58;;;;;;;11.55;5.53;;;;;;;;;;5030836;28;20591;-75
2022/08/03 01:44:24;;;;;;;9.00;5.43;;;;;;;;;;5011474;28;20538;-76
2022/08/03 01:46:51;;;;;;;11.38;5.72;;;;;;;;;;5025834;28;20050;-77
2022/08/03 01:49:17;;;;;;;12.25;5.55;;;;;;;;;;5029209;28;20447;-77
2022/08/03 01:51:45;;;;;;;10.63;5.47;;;;;;;;;;5028852;28;20128;-76
2022/08/03 01:54:12;;;;;;;9.80;5.22;;;;;;;;;;5026172;28;20377;-77
2022/08/03 01:56:39;;;;;;;8.20;5.63;;;;;;;;;;5018772;28;20121;-76
2022/08/03 01:59:07;;;;;;;11.05;5.30;;;;;;;;;;5019833;28;20044;-76
2022/08/03 02:01:34;;;;;;;9.85;5.38;;;;;;;;;;5020005;28;20033;-77
2022/08/03 02:04:01;;;;;;;12.63;5.85;;;;;;;;;;5016258;28;20125;-76
2022/08/03 02:06:28;;;;;;;12.10;5.47;;;;;;;;;;5031258;28;20095;-77
2022/08/03 02:08:55;;;;;;;10.73;5.15;;;;;;;;;;5019595;28;20049;-76
2022/08/03 02:11:22;;;;;;;12.70;5.25;;;;;;;;;;5030640;28;20052;-74
2022/08/03 02:13:50;;;;;;;8.55;4.80;;;;;;;;;;5033187;28;20034;-75
2022/08/03 02:16:17;;;;;;;11.45;4.93;;;;;;;;;;5018879;28;20045;-75
2022/08/03 02:18:43;;;;;;;11.30;5.10;;;;;;;;;;5020595;28;20381;-76
2022/08/03 02:21:10;;;;;;;13.00;5.25;;;;;;;;;;5031543;28;20102;-75
2022/08/03 02:23:37;;;;;;;9.63;4.88;;;;;;;;;;5029385;28;20137;-75
2022/08/03 02:26:04;;;;;;;11.75;5.60;;;;;;;;;;5031291;28;20116;-75
2022/08/03 02:28:41;;;;;;;10.00;4.90;;;;;;;;;;5027044;28;20137;-75
2022/08/03 02:31:11;;;;;;;9.38;4.95;;;;;;;;;;5032080;28;20052;-75
2022/08/03 02:33:38;;;;;;;11.40;4.85;;;;;;;;;;5033108;28;20112;-75
2022/08/03 02:36:05;;;;;;;12.20;5.30;;;;;;;;;;5031517;28;20041;-75
2022/08/03 02:38:33;;;;;;;9.75;5.50;;;;;;;;;;5030172;28;20049;-75
2022/08/03 02:41:00;;;;;;;10.82;4.82;;;;;;;;;;5031895;28;20130;-75
2022/08/03 02:43:32;;;;;;;8.57;4.82;;;;;;;;;;5028089;28;20041;-74
2022/08/03 02:45:58;;;;;;;11.98;5.30;;;;;;;;;;5028881;28;20034;-75
2022/08/03 02:48:26;;;;;;;8.10;4.90;;;;;;;;;;5023955;28;20041;-74
2022/08/03 02:50:53;;;;;;;8.73;4.70;;;;;;;;;;5026910;28;20144;-75
2022/08/03 02:53:21;;;;;;;10.00;4.90;;;;;;;;;;5032120;28;20059;-75
2022/08/03 02:55:47;;;;;;;13.02;4.82;;;;;;;;;;5026778;28;20299;-75
2022/08/03 02:58:14;;;;;;;11.93;5.10;;;;;;;;;;5027233;28;20445;-75
2022/08/03 03:00:41;;;;;;;10.25;4.93;;;;;;;;;;5030164;28;20500;-75
2022/08/03 03:03:07;;;;;;;10.10;4.85;;;;;;;;;;5029788;28;20039;-75
2022/08/03 03:05:34;;;;;;;10.55;4.50;;;;;;;;;;5023206;28;20044;-75
2022/08/03 03:08:00;;;;;;;8.65;4.93;;;;;;;;;;5018547;28;20048;-76
2022/08/03 03:10:26;;;;;;;6.95;5.07;;;;;;;;;;5031747;28;20038;-76
2022/08/03 03:12:57;;;;;;;11.02;5.32;;;;;;;;;;5036739;28;20042;-76
2022/08/03 03:15:23;;;;;;;11.15;4.93;;;;;;;;;;5028093;28;20123;-76
2022/08/03 03:17:49;;;;;;;7.05;4.40;;;;;;;;;;5034603;28;20065;-77
2022/08/03 03:20:16;;;;;;;11.65;4.70;;;;;;;;;;5032047;28;20037;-78
2022/08/03 03:22:43;;;;;;;13.32;5.40;;;;;;;;;;5032324;28;20052;-76
2022/08/03 03:25:09;;;;;;;13.50;4.93;;;;;;;;;;5027872;28;20070;-75
2022/08/03 03:27:36;;;;;;;9.95;4.90;;;;;;;;;;5022818;28;20041;-76
2022/08/03 03:30:02;;;;;;;8.32;4.57;;;;;;;;;;5025280;28;20056;-76
2022/08/03 03:32:29;;;;;;;11.80;5.20;;;;;;;;;;5032062;28;20046;-75
2022/08/03 03:34:58;;;;;;;10.80;5.03;;;;;;;;;;5030614;28;20046;-75
2022/08/03 03:37:24;;;;;;;13.07;4.30;;;;;;;;;;5028914;28;20052;-75
2022/08/03 03:39:50;;;;;;;9.20;4.38;;;;;;;;;;5028238;28;20444;-75
2022/08/03 03:42:16;;;;;;;8.45;4.45;;;;;;;;;;5001960;28;20045;-76
2022/08/03 03:44:42;;;;;;;7.60;4.75;;;;;;;;;;5014367;28;20045;-75
2022/08/03 03:47:08;;;;;;;12.75;4.78;;;;;;;;;;5034615;28;20072;-75
2022/08/03 03:49:35;;;;;;;9.45;4.47;;;;;;;;;;5035561;28;20110;-76
2022/08/03 03:52:01;;;;;;;8.60;4.70;;;;;;;;;;5036012;28;20045;-75
2022/08/03 03:54:38;;;;;;;13.02;5.25;;;;;;;;;;5035676;28;20048;-76
2022/08/03 03:57:04;;;;;;;11.90;4.57;;;;;;;;;;5036072;28;20041;-75
2022/08/03 03:59:30;;;;;;;14.93;4.57;;;;;;;;;;5032453;28;20046;-75
2022/08/03 04:01:57;;;;;;;8.63;4.32;;;;;;;;;;5014629;28;20108;-75
2022/08/03 04:12:53;;;;;;;12.57;4.70;;;;;;;;;;4993557;28;20046;-75
2022/08/03 04:15:21;;;;;;;8.45;4.68;;;;;;;;;;4993972;28;20161;-74
2022/08/03 04:17:49;;;;;;;8.68;3.90;;;;;;;;;;5008873;28;20053;-75
2022/08/03 04:20:17;;;;;;;12.68;4.45;;;;;;;;;;4994032;28;20038;-75
2022/08/03 04:22:43;;;;;;;7.85;4.13;;;;;;;;;;4992279;28;20057;-76
2022/08/03 04:25:10;;;;;;;12.07;4.85;;;;;;;;;;4994144;28;20047;-75
2022/08/03 04:27:37;;;;;;;12.32;5.05;;;;;;;;;;4993468;28;20155;-75
2022/08/03 04:30:05;;;;;;;11.52;4.70;;;;;;;;;;4993665;28;20054;-76
2022/08/03 04:32:31;;;;;;;10.93;4.20;;;;;;;;;;4993818;28;20394;-75
2022/08/03 04:34:57;;;;;;;7.47;4.43;;;;;;;;;;4993310;28;20235;-76
2022/08/03 04:37:34;;;;;;;11.20;4.22;;;;;;;;;;4992685;28;20053;-75
2022/08/03 04:40:01;;;;;;;11.90;4.90;;;;;;;;;;4993247;28;20049;-76
2022/08/03 04:42:28;;;;;;;8.82;4.65;;;;;;;;;;4993342;28;20126;-75
2022/08/03 04:44:55;;;;;;;8.43;4.35;;;;;;;;;;5004290;28;20125;-75
2022/08/03 04:47:21;;;;;;;13.80;4.60;;;;;;;;;;5002967;28;20050;-75
2022/08/03 04:49:48;;;;;;;11.15;4.75;;;;;;;;;;4997558;28;20054;-76
2022/08/03 04:52:14;;;;;;;8.27;4.38;;;;;;;;;;4994850;28;20113;-76
2022/08/03 04:54:41;;;;;;;9.70;4.28;;;;;;;;;;4993033;28;21024;-77
2022/08/03 04:57:07;;;;;;;8.85;4.40;;;;;;;;;;5001707;28;20050;-75
2022/08/03 04:59:33;;;;;;;10.90;4.80;;;;;;;;;;4995719;28;20074;-76
2022/08/03 05:01:59;;;;;;;12.20;4.40;;;;;;;;;;4995072;28;20076;-76
2022/08/03 05:04:25;;;;;;;11.43;4.18;;;;;;;;;;4994378;28;20121;-76
2022/08/03 05:06:51;;;;;;;10.88;4.45;;;;;;;;;;4995808;28;20497;-76
2022/08/03 05:09:17;;;;;;;12.00;4.50;;;;;;;;;;4994249;28;20510;-76
2022/08/03 05:11:43;;;;;;;11.23;4.40;;;;;;;;;;5000221;28;20042;-76
2022/08/03 05:14:09;;;;;;;9.77;4.15;;;;;;;;;;4985126;28;20051;-75
2022/08/03 05:16:35;;;;;;;8.20;4.22;;;;;;;;;;4990781;28;20050;-75
2022/08/03 05:19:01;;;;;;;8.27;4.40;;;;;;;;;;4986844;28;20155;-75
2022/08/03 05:21:27;;;;;;;9.50;4.43;;;;;;;;;;4999452;28;20040;-75
2022/08/03 05:23:53;;;;;;;10.75;4.43;;;;;;;;;;4994153;28;20042;-76
2022/08/03 05:26:19;;;;;;;9.07;4.15;;;;;;;;;;4994558;28;20112;-76
2022/08/03 05:28:45;;;;;;;10.68;4.93;;;;;;;;;;4994001;28;20050;-76
2022/08/03 05:31:12;;;;;;;8.35;4.25;;;;;;;;;;4994640;28;20038;-75
2022/08/03 05:33:38;;;;;;;9.30;4.18;;;;;;;;;;4980558;28;20214;-76
2022/08/03 05:36:05;;;;;;;9.48;4.47;;;;;;;;;;4994467;28;20406;-76
2022/08/03 05:38:31;;;;;;;8.48;3.90;;;;;;;;;;4991059;28;20039;-76
2022/08/03 05:40:57;;;;;;;8.00;4.03;;;;;;;;;;4989282;28;20058;-81
2022/08/03 05:43:24;;;;;;;11.13;4.35;;;;;;;;;;4995636;28;20136;-76
2022/08/03 05:45:50;;;;;;;7.95;3.83;;;;;;;;;;4997668;28;20053;-76
2022/08/03 05:48:16;;;;;;;15.88;4.70;;;;;;;;;;5032350;28;20049;-78
2022/08/03 05:50:42;;;;;;;10.95;4.20;;;;;;;;;;5037673;28;20046;-74
2022/08/03 05:53:08;;;;;;;12.15;4.07;;;;;;;;;;5038821;28;20136;-75
2022/08/03 05:55:34;;;;;;;11.73;4.63;;;;;;;;;;5036735;28;20074;-74
2022/08/03 05:58:02;;;;;;;10.43;4.20;;;;;;;;;;5036616;28;20073;-74
2022/08/03 06:00:28;;;;;;;10.85;4.25;;;;;;;;;;5037368;28;20571;-75
2022/08/03 06:02:54;;;;;;;9.55;4.28;;;;;;;;;;5035736;28;20041;-75
2022/08/03 06:05:20;;;;;;;10.65;4.53;;;;;;;;;;5035755;28;20072;-81
2022/08/03 06:07:46;;;;;;;9.38;4.07;;;;;;;;;;5016788;28;20144;-75
2022/08/03 06:10:12;;;;;;;11.73;4.53;;;;;;;;;;5003222;28;20092;-82
2022/08/03 06:12:40;;;;;;;7.90;4.13;;;;;;;;;;5034408;28;20118;-76
2022/08/03 06:15:06;;;;;;;9.82;4.65;;;;;;;;;;5026128;28;20057;-75
2022/08/03 06:17:32;;;;;;;11.40;4.55;;;;;;;;;;5042496;28;20038;-75
2022/08/03 06:19:58;;;;;;;13.07;4.38;;;;;;;;;;5016704;28;20492;-75
2022/08/03 06:22:24;;;;;;;9.68;4.22;;;;;;;;;;5036216;28;20045;-75
2022/08/03 06:24:50;;;;;;;9.88;4.30;;;;;;;;;;5035825;28;20042;-75
2022/08/03 06:27:16;;;;;;;11.40;4.72;;;;;;;;;;5033907;28;20112;-75
2022/08/03 06:29:42;;;;;;;13.77;4.75;;;;;;;;;;5034181;28;20098;-75
2022/08/03 06:32:08;;;;;;;12.82;4.60;;;;;;;;;;5016749;28;20054;-75
2022/08/03 06:34:34;;;;;;;11.05;4.40;;;;;;;;;;5034471;28;20385;-75
2022/08/03 06:37:00;;;;;;;9.32;4.53;;;;;;;;;;5031956;28;20056;-75
2022/08/03 06:39:27;;;;;;;14.38;4.97;;;;;;;;;;5035803;28;20038;-75
2022/08/03 06:41:53;;;;;;;15.30;5.00;;;;;;;;;;5035002;28;20071;-75
2022/08/03 06:44:19;;;;;;;12.55;4.65;;;;;;;;;;5035886;28;20101;-76
2022/08/03 06:46:46;;;;;;;15.52;4.45;;;;;;;;;;5044019;28;20041;-75
2022/08/03 06:49:12;;;;;;;12.88;4.50;;;;;;;;;;5024820;28;20058;-78
2022/08/03 06:51:38;;;;;;;12.52;5.10;;;;;;;;;;5048285;28;20057;-76
2022/08/03 06:54:04;;;;;;;14.60;5.57;;;;;;;;;;5043897;28;20460;-75
2022/08/03 06:56:30;;;;;;;12.10;4.47;;;;;;;;;;5036353;28;20046;-76
2022/08/03 06:58:56;;;;;;;16.35;5.35;;;;;;;;;;5036480;28;20483;-77
2022/08/03 07:01:22;;;;;;;15.90;4.70;;;;;;;;;;5042564;28;20045;-76
2022/08/03 07:03:48;;;;;;;12.27;4.60;;;;;;;;;;5037717;28;20089;-76
2022/08/03 07:06:14;;;;;;;12.15;4.63;;;;;;;;;;5043400;28;20048;-86
2022/08/03 07:08:40;;;;;;;14.23;4.97;;;;;;;;;;5021275;28;20091;-75
2022/08/03 07:11:06;;;;;;;13.57;4.65;;;;;;;;;;5026496;28;20133;-83
2022/08/03 07:13:32;;;;;;;9.27;4.40;;;;;;;;;;5041619;28;20045;-84
2022/08/03 07:15:58;;;;;;;10.27;5.35;;;;;;;;;;5022002;28;20053;-81
2022/08/03 07:18:25;;;;;;;12.95;5.00;;;;;;;;;;5023943;28;20046;-80
2022/08/03 07:20:51;;;;;;;12.32;5.22;;;;;;;;;;5016812;28;20052;-75
2022/08/03 07:23:17;;;;;;;14.73;5.40;;;;;;;;;;5027693;28;20061;-75
2022/08/03 07:25:43;;;;;;;16.20;5.15;;;;;;;;;;5036409;28;20382;-75
2022/08/03 07:28:09;;;;;;;13.43;5.22;;;;;;;;;;5036290;28;20045;-76
2022/08/03 07:30:35;;;;;;;13.13;5.40;;;;;;;;;;5036133;28;20048;-75
2022/08/03 07:33:01;;;;;;;13.27;5.70;;;;;;;;;;5035397;28;20121;-75
2022/08/03 07:35:27;;;;;;;13.45;5.38;;;;;;;;;;5036386;28;20048;-75
2022/08/03 07:37:53;;;;;;;18.05;5.50;;;;;;;;;;5018457;28;20045;-75
2022/08/03 07:40:19;;;;;;;10.75;5.03;;;;;;;;;;5037424;28;20041;-75
2022/08/03 07:42:45;;;;;;;10.48;4.57;;;;;;;;;;5037269;28;20056;-75
2022/08/03 07:45:11;;;;;;;16.98;5.72;;;;;;;;;;5045536;28;20038;-76
2022/08/03 07:47:37;;;;;;;11.35;4.90;;;;;;;;;;5036731;28;20059;-75
2022/08/03 07:50:05;;;;;;;11.65;5.20;;;;;;;;;;5035902;28;20492;-75
2022/08/03 07:52:50;;;;;;;16.92;4.80;;;;;;;;;;5011509;28;20041;-74
2022/08/03 07:55:17;;;;;;;14.13;4.95;;;;;;;;;;4982491;28;20046;-81
2022/08/03 07:57:43;;;;;;;10.38;4.90;;;;;;;;;;5024740;28;20040;-80
2022/08/03 08:00:14;;;;;;;12.27;4.53;;;;;;;;;;5017400;28;20402;-81
2022/08/03 08:02:40;;;;;;;12.13;5.47;;;;;;;;;;5035557;28;20045;-82
2022/08/03 08:05:07;;;;;;;15.50;5.30;;;;;;;;;;5035485;28;20056;-83
2022/08/03 08:07:33;;;;;;;13.27;5.63;;;;;;;;;;5034847;28;20038;-81
2022/08/03 08:09:59;;;;;;;12.25;5.20;;;;;;;;;;5034912;28;20121;-80
2022/08/03 08:12:25;;;;;;;12.48;4.93;;;;;;;;;;5035026;28;20041;-81
2022/08/03 08:14:51;;;;;;;14.68;5.22;;;;;;;;;;5034891;28;20076;-82
2022/08/03 08:17:18;;;;;;;13.75;6.10;;;;;;;;;;5034737;28;20379;-82
2022/08/03 08:19:44;;;;;;;15.48;5.55;;;;;;;;;;5034987;28;20049;-81
2022/08/03 08:22:10;;;;;;;16.58;6.22;;;;;;;;;;5034798;28;20504;-82
2022/08/03 08:24:36;;;;;;;14.55;5.75;;;;;;;;;;5035048;28;20120;-81
2022/08/03 08:27:02;;;;;;;14.32;5.80;;;;;;;;;;5034584;28;20037;-81
2022/08/03 08:29:28;;;;;;;13.38;5.93;;;;;;;;;;5035206;28;20049;-81
2022/08/03 08:31:54;;;;;;;12.70;5.65;;;;;;;;;;5034659;28;20108;-80
2022/08/03 08:34:20;;;;;;;14.40;5.70;;;;;;;;;;5034826;28;20414;-79
2022/08/03 08:36:46;;;;;;;13.38;6.10;;;;;;;;;;5034963;28;20133;-81
2022/08/03 08:39:12;;;;;;;13.23;6.00;;;;;;;;;;5034425;28;20047;-81
2022/08/03 08:41:38;;;;;;;15.82;6.35;;;;;;;;;;5034994;28;20060;-81
2022/08/03 08:44:07;;;;;;;15.73;6.45;;;;;;;;;;5034241;28;20042;-80
2022/08/03 08:46:33;;;;;;;15.50;5.78;;;;;;;;;;5034221;28;20354;-80
2022/08/03 08:48:59;;;;;;;14.68;6.15;;;;;;;;;;5034468;28;20107;-81
2022/08/03 08:51:36;;;;;;;15.43;6.38;;;;;;;;;;5034867;28;20049;-76
2022/08/03 08:54:03;;;;;;;14.27;6.10;;;;;;;;;;5034274;28;20053;-77
2022/08/03 08:56:29;;;;;;;14.52;7.00;;;;;;;;;;5034865;28;20047;-77
2022/08/03 08:58:59;;;;;;;14.30;6.57;;;;;;;;;;5034613;28;20117;-77
2022/08/03 09:01:25;;;;;;;13.07;6.70;;;;;;;;;;5034799;28;20037;-77
2022/08/03 09:03:52;;;;;;;13.65;6.45;;;;;;;;;;5034424;28;20045;-77
2022/08/03 09:06:19;;;;;;;14.95;6.55;;;;;;;;;;5035078;28;20077;-76
2022/08/03 09:08:45;;;;;;;13.95;6.68;;;;;;;;;;5034465;28;20046;-77
2022/08/03 09:11:11;;;;;;;14.73;6.78;;;;;;;;;;5034799;28;20047;-77
2022/08/03 09:13:38;;;;;;;11.85;6.30;;;;;;;;;;5034680;28;20053;-76
2022/08/03 09:16:14;;;;;;;17.33;7.72;;;;;;;;;;5034449;28;20050;-76
2022/08/03 09:18:41;;;;;;;12.32;6.53;;;;;;;;;;5033957;28;20046;-77
2022/08/03 09:21:14;;;;;;;18.80;7.63;;;;;;;;;;5033275;28;20124;-77
2022/08/03 09:23:47;;;;;;;17.70;7.25;;;;;;;;;;5034679;28;20037;-77
2022/08/03 09:26:19;;;;;;;14.55;7.57;;;;;;;;;;5034224;28;20046;-77
2022/08/03 09:28:45;;;;;;;16.67;8.50;;;;;;;;;;5033782;28;20045;-77
2022/08/03 09:31:11;;;;;;;18.25;8.10;;;;;;;;;;5034162;28;20045;-77
2022/08/03 09:33:46;;;;;;;16.42;8.15;;;;;;;;;;5017763;28;20049;-77
2022/08/03 09:36:32;;;;;;;13.32;7.80;;;;;;;;;;5034013;28;20045;-77
2022/08/03 09:38:58;;;;;;;;;;;;;;;;;;5034667;28;20041;-75
2022/08/03 09:41:24;;;;;;;12.85;7.50;;;;;;;;;;5033305;28;20212;-78
2022/08/03 09:43:55;;;;;;;21.90;8.75;;;;;;;;;;5033463;28;20499;-78
2022/08/03 09:46:21;;;;;;;16.85;7.78;;;;;;;;;;5035081;28;20055;-78
2022/08/03 09:48:47;;;;;;;18.25;7.93;;;;;;;;;;5035514;28;20358;-75
2022/08/03 09:51:17;;;;;;;21.13;8.93;;;;;;;;;;5043974;28;20041;-76
2022/08/03 09:53:46;;;;;;;17.67;9.07;;;;;;;;;;5036807;28;20072;-75
2022/08/03 09:56:13;;;;;;;20.50;9.95;;;;;;;;;;5033088;28;20045;-75
2022/08/03 09:58:46;;;;;;;20.17;9.23;;;;;;;;;;5033302;28;20068;-76
2022/08/03 10:01:12;;;;;;;17.75;8.93;;;;;;;;;;5033719;28;20496;-82
2022/08/03 10:03:39;;;;;;;17.90;10.30;;;;;;;;;;5015192;28;20046;-76
2022/08/03 10:06:18;;;;;;;16.83;10.45;;;;;;;;;;5014614;28;20053;-76
2022/08/03 10:09:03;;;;;;;20.55;9.40;;;;;;;;;;5014023;28;20117;-76
2022/08/03 10:11:31;;;;;;;19.50;11.10;;;;;;;;;;5027606;28;20064;-76
2022/08/03 10:13:57;;;;;;;18.10;11.43;;;;;;;;;;5033200;28;20493;-76
2022/08/03 10:16:23;;;;;;;24.48;11.07;;;;;;;;;;5033080;28;20124;-76
2022/08/03 10:18:49;;;;;;;20.55;11.10;;;;;;;;;;5033291;28;20125;-76
2022/08/03 10:21:16;;;;;;;16.27;10.60;;;;;;;;;;5048655;28;20128;-75
2022/08/03 10:23:43;;;;;;;18.60;11.40;;;;;;;;;;5051562;28;20045;-76
2022/08/03 10:26:12;;;;;;;17.77;10.70;;;;;;;;;;5034010;28;20042;-78
2022/08/03 10:28:40;;;;;;;20.05;10.18;;;;;;;;;;5034075;28;20114;-76
2022/08/03 10:31:06;;;;;;;18.98;10.82;;;;;;;;;;5032613;28;20041;-75
2022/08/03 10:33:36;;;;;;;15.10;10.35;;;;;;;;;;5033587;28;20053;-83
2022/08/03 10:36:04;;;;;;;21.52;9.82;;;;;;;;;;5013467;28;20511;-75
2022/08/03 10:38:35;;;;;;;18.30;9.48;;;;;;;;;;5033670;28;20046;-75
2022/08/03 10:41:01;;;;;;;17.67;9.55;;;;;;;;;;5032865;28;20064;-76
2022/08/03 10:43:31;;;;;;;18.40;10.10;;;;;;;;;;5016536;28;20042;-81
2022/08/03 10:45:58;;;;;;;18.58;9.98;;;;;;;;;;5029274;28;20046;-76
2022/08/03 10:48:25;;;;;;;17.33;9.38;;;;;;;;;;5034192;28;20473;-76
2022/08/03 10:50:52;;;;;;;17.67;9.23;;;;;;;;;;5031839;28;20116;-76
2022/08/03 10:53:33;;;;;;;18.67;9.10;;;;;;;;;;5031821;28;20123;-77
2022/08/03 10:58:51;;;;;;;15.13;9.23;;;;;;;;;;5025794;28;20054;-77
2022/08/03 11:01:18;;;;;;;18.95;9.63;;;;;;;;;;5028086;28;20041;-74
2022/08/03 11:03:54;;;;;;;19.73;9.15;;;;;;;;;;5032937;28;20175;-74
2022/08/03 11:06:21;;;;;;;20.40;9.40;;;;;;;;;;5025701;28;20038;-75
2022/08/03 11:08:48;;;;;;;24.55;10.18;;;;;;;;;;5028993;28;20057;-74
2022/08/03 11:11:17;;;;;;;14.77;8.68;;;;;;;;;;5032454;28;20046;-74
2022/08/03 11:14:06;;;;;;;21.55;10.02;;;;;;;;;;5032440;28;20050;-75
2022/08/03 11:16:34;;;;;;;22.95;9.65;;;;;;;;;;5032934;28;20438;-76
2022/08/03 11:19:01;;;;;;;14.05;8.75;;;;;;;;;;5032314;28;20103;-75
2022/08/03 11:21:45;;;;;;;16.02;9.63;;;;;;;;;;5032795;28;20080;-75
2022/08/03 11:24:31;;;;;;;19.98;9.57;;;;;;;;;;5029777;28;20090;-76
2022/08/03 11:27:17;;;;;;;17.08;9.85;;;;;;;;;;5031495;28;20037;-76
2022/08/03 11:29:59;;;;;;;21.13;10.13;;;;;;;;;;5014918;28;20056;-76
2022/08/03 11:32:42;;;;;;;18.40;10.00;;;;;;;;;;5034028;28;20120;-76
2022/08/03 11:35:12;;;;;;;20.83;10.05;;;;;;;;;;5035422;28;20439;-76
2022/08/03 11:37:56;;;;;;;17.00;8.73;;;;;;;;;;5035383;28;20045;-76
2022/08/03 11:40:36;;;;;;;18.65;8.77;;;;;;;;;;5018148;28;20473;-76
2022/08/03 11:43:03;;;;;;;18.10;8.35;;;;;;;;;;5021959;28;20045;-76
2022/08/03 11:45:30;;;;;;;15.27;7.93;;;;;;;;;;5016343;28;20046;-76
2022/08/03 11:47:57;;;;;;;18.85;8.38;;;;;;;;;;5025333;28;20084;-76
2022/08/03 11:50:24;;;;;;;18.02;8.55;;;;;;;;;;5035526;28;20567;-75
2022/08/03 11:52:50;;;;;;;19.77;7.80;;;;;;;;;;5035811;28;20049;-75
2022/08/03 11:55:20;;;;;;;15.57;7.78;;;;;;;;;;5035369;28;20127;-76
2022/08/03 11:57:47;;;;;;;15.02;8.40;;;;;;;;;;5035301;28;20107;-76
2022/08/03 12:00:23;;;;;;;14.75;7.82;;;;;;;;;;5035696;28;20124;-76
2022/08/03 12:03:08;;;;;;;16.77;7.90;;;;;;;;;;5034678;28;20052;-76
2022/08/03 12:05:34;;;;;;;12.93;8.18;;;;;;;;;;5035310;28;20050;-76
2022/08/03 12:08:00;;;;;;;17.55;8.52;;;;;;;;;;5035197;28;20129;-76
2022/08/03 12:10:27;;;;;;;19.48;9.13;;;;;;;;;;5033489;28;20475;-76
2022/08/03 12:12:57;;;;;;;16.55;8.77;;;;;;;;;;5035693;28;20049;-76
2022/08/03 12:15:30;;;;;;;20.25;9.27;;;;;;;;;;5035451;28;20124;-76
2022/08/03 12:17:57;;;;;;;16.85;7.90;;;;;;;;;;5035462;28;20042;-76
2022/08/03 12:20:24;;;;;;;21.77;8.23;;;;;;;;;;5033100;28;20045;-76
2022/08/03 12:22:50;;;;;;;16.88;7.70;;;;;;;;;;5015453;28;20049;-76
2022/08/03 12:25:20;;;;;;;17.02;8.10;;;;;;;;;;5035014;28;20458;-76
2022/08/03 12:27:46;;;;;;;17.10;8.68;;;;;;;;;;5017434;28;20042;-76
2022/08/03 12:30:13;;;;;;;16.42;7.28;;;;;;;;;;5035152;28;20049;-77
2022/08/03 12:32:39;;;;;;;17.83;7.65;;;;;;;;;;4998340;28;20479;-76
2022/08/03 12:35:05;;;;;;;17.30;7.10;;;;;;;;;;5015482;28;20496;-76
2022/08/03 12:37:31;;;;;;;14.98;6.38;;;;;;;;;;5015539;28;20157;-76
2022/08/03 12:40:00;;;;;;;15.43;6.25;;;;;;;;;;5002908;28;20051;-76
2022/08/03 12:42:30;;;;;;;13.70;6.15;;;;;;;;;;5034890;28;20048;-76
2022/08/03 12:44:56;;;;;;;14.48;5.53;;;;;;;;;;5033859;28;20045;-76
2022/08/03 12:47:22;;;;;;;15.95;6.05;;;;;;;;;;5034482;28;20054;-76
2022/08/03 12:49:49;;;;;;;12.52;5.43;;;;;;;;;;5034420;28;20045;-76
2022/08/03 12:52:16;;;;;;;15.43;5.70;;;;;;;;;;5034410;28;20507;-75
2022/08/03 12:54:44;;;;;;;16.83;5.90;;;;;;;;;;5034154;28;20042;-76
2022/08/03 12:57:11;;;;;;;12.80;5.22;;;;;;;;;;5034781;28;20071;-76
2022/08/03 12:59:42;;;;;;;16.30;5.65;;;;;;;;;;5034643;28;20057;-75
2022/08/03 13:02:15;;;;;;;15.73;5.65;;;;;;;;;;5034480;28;20060;-76
2022/08/03 13:04:41;;;;;;;19.20;5.63;;;;;;;;;;5016378;28;20459;-76
2022/08/03 13:07:08;;;;;;;18.42;6.43;;;;;;;;;;5034677;28;20477;-76
2022/08/03 13:09:48;;;;;;;18.13;6.00;;;;;;;;;;5033962;28;20430;-76
2022/08/03 13:12:16;;;;;;;14.43;5.70;;;;;;;;;;5033292;28;20045;-76
2022/08/03 13:14:42;;;;;;;18.85;6.40;;;;;;;;;;5034355;28;20405;-75
2022/08/03 13:17:09;;;;;;;15.02;5.63;;;;;;;;;;5034124;28;20050;-76
2022/08/03 13:19:35;;;;;;;14.57;4.85;;;;;;;;;;5034573;28;20045;-76
2022/08/03 13:22:11;;;;;;;12.63;5.57;;;;;;;;;;5033945;28;20045;-74
2022/08/03 13:24:37;;;;;;;14.55;5.30;;;;;;;;;;5033991;28;20041;-76
2022/08/03 13:27:05;;;;;;;13.10;4.78;;;;;;;;;;5034138;28;20106;-75
2022/08/03 13:29:31;;;;;;;15.00;5.00;;;;;;;;;;5034373;28;20045;-75
2022/08/03 13:31:57;;;;;;;12.05;5.30;;;;;;;;;;5015498;28;20164;-76
2022/08/03 13:34:23;;;;;;;15.43;5.22;;;;;;;;;;5033847;28;20378;-76
2022/08/03 13:36:49;;;;;;;16.25;5.28;;;;;;;;;;5033488;28;20393;-76
2022/08/03 13:39:15;;;;;;;13.43;5.55;;;;;;;;;;5033717;28;20130;-75
2022/08/03 13:41:41;;;;;;;14.07;5.75;;;;;;;;;;5032640;28;20048;-75
2022/08/03 13:44:07;;;;;;;12.80;4.95;;;;;;;;;;5016028;28;20041;-75
2022/08/03 13:46:33;;;;;;;16.90;6.22;;;;;;;;;;5032909;28;20405;-76
2022/08/03 13:48:59;;;;;;;13.13;5.72;;;;;;;;;;5033956;28;20072;-75
2022/08/03 13:51:25;;;;;;;15.43;5.50;;;;;;;;;;5033498;28;20524;-75
2022/08/03 13:53:51;;;;;;;15.52;5.72;;;;;;;;;;5031236;28;20124;-76
2022/08/03 13:56:17;;;;;;;12.13;5.20;;;;;;;;;;5013768;28;20044;-75
2022/08/03 13:58:44;;;;;;;15.32;5.68;;;;;;;;;;5013511;28;20068;-75
2022/08/03 14:01:10;;;;;;;13.27;5.60;;;;;;;;;;5015826;28;20171;-75
2022/08/03 14:03:36;;;;;;;10.55;5.63;;;;;;;;;;5033378;28;20095;-75
2022/08/03 14:06:02;;;;;;;11.80;5.43;;;;;;;;;;5033402;28;20095;-75
2022/08/03 14:08:28;;;;;;;14.38;5.40;;;;;;;;;;5033412;28;20045;-75
2022/08/03 14:10:54;;;;;;;13.82;5.57;;;;;;;;;;5032868;28;20041;-76
2022/08/03 14:13:21;;;;;;;11.65;5.35;;;;;;;;;;5033591;28;20052;-75
2022/08/03 14:15:47;;;;;;;13.23;5.05;;;;;;;;;;5033543;28;20120;-75
2022/08/03 14:18:13;;;;;;;11.57;4.90;;;;;;;;;;5032941;28;20136;-76
2022/08/03 14:20:39;;;;;;;12.23;5.25;;;;;;;;;;5033169;28;20057;-76
2022/08/03 14:23:05;;;;;;;9.15;4.50;;;;;;;;;;5032271;28;20540;-76
2022/08/03 14:25:31;;;;;;;11.68;4.93;;;;;;;;;;5032284;28;20037;-76
2022/08/03 14:27:58;;;;;;;10.27;5.15;;;;;;;;;;5032900;28;20053;-76
2022/08/03 14:30:24;;;;;;;17.20;4.97;;;;;;;;;;5032684;28;20417;-76
2022/08/03 14:32:50;;;;;;;15.35;5.43;;;;;;;;;;5032893;28;20056;-76
2022/08/03 14:35:16;;;;;;;14.95;4.90;;;;;;;;;;5032966;28;20046;-76
2022/08/03 14:37:42;;;;;;;13.98;4.78;;;;;;;;;;5015216;28;20053;-76
2022/08/03 14:40:08;;;;;;;13.55;4.90;;;;;;;;;;5032028;28;21848;-75
2022/08/03 14:42:34;;;;;;;16.27;4.60;;;;;;;;;;5027537;28;20087;-75
2022/08/03 14:45:00;;;;;;;12.52;4.93;;;;;;;;;;5033036;28;20041;-76